createdAt,value
2023-04-18T00:00:54.284Z,16.73
2023-04-18T00:03:22.042Z,15.45
2023-04-18T00:05:51.913Z,13.40
2023-04-18T00:08:18.803Z,13.30
2023-04-18T00:10:45.607Z,14.30
2023-04-18T00:13:12.138Z,17.27
2023-04-18T00:15:38.823Z,15.10
2023-04-18T00:18:06.141Z,14.33
2023-04-18T00:23:00.637Z,13.95
2023-04-18T00:25:27.301Z,20.20
2023-04-18T00:27:53.725Z,16.37
2023-04-18T00:30:20.233Z,17.88
2023-04-18T00:32:46.851Z,16.08
2023-04-18T00:35:13.498Z,14.53
2023-04-18T00:37:40.027Z,15.05
2023-04-18T00:40:08.480Z,15.40
2023-04-18T00:42:35.028Z,14.05
2023-04-18T00:45:01.848Z,15.68
2023-04-18T00:47:28.753Z,15.23
2023-04-18T00:49:55.706Z,14.57
2023-04-18T00:52:22.389Z,17.58
2023-04-18T00:54:50.420Z,16.10
2023-04-18T00:57:17.353Z,14.70
2023-04-18T00:59:44.073Z,17.45
2023-04-18T01:02:10.658Z,15.63
2023-04-18T01:04:37.393Z,15.03
2023-04-18T01:07:04.559Z,18.25
2023-04-18T01:09:31.427Z,15.50
2023-04-18T01:11:58.942Z,14.77
2023-04-18T01:16:52.034Z,13.32
2023-04-18T01:19:20.847Z,14.67
2023-04-18T01:21:47.371Z,14.50
2023-04-18T01:24:16.165Z,16.98
2023-04-18T01:26:45.361Z,13.73
2023-04-18T01:29:12.091Z,12.75
2023-04-18T01:31:40.309Z,13.75
2023-04-18T01:34:07.995Z,16.02
2023-04-18T01:36:37.935Z,15.95
2023-04-18T01:39:05.639Z,17.83
2023-04-18T01:41:33.212Z,15.10
2023-04-18T01:46:33.279Z,14.55
2023-04-18T01:48:59.816Z,15.65
2023-04-18T01:51:28.220Z,18.13
2023-04-18T01:53:54.774Z,17.15
2023-04-18T01:56:21.261Z,17.40
2023-04-18T01:58:47.725Z,15.70
2023-04-18T02:01:14.196Z,17.85
2023-04-18T02:03:41.014Z,17.30
2023-04-18T02:06:08.018Z,14.25
2023-04-18T02:08:35.848Z,15.80
2023-04-18T02:11:02.909Z,18.50
2023-04-18T02:13:29.331Z,14.82
2023-04-18T02:15:55.829Z,17.75
2023-04-18T02:18:24.885Z,29.83
2023-04-18T02:20:52.087Z,19.65
2023-04-18T02:23:19.163Z,19.80
2023-04-18T02:25:45.797Z,15.27
2023-04-18T02:28:12.330Z,17.93
2023-04-18T02:30:38.979Z,16.92
2023-04-18T02:33:05.579Z,15.20
2023-04-18T02:35:32.290Z,16.23
2023-04-18T02:37:58.809Z,22.20
2023-04-18T02:40:25.378Z,21.02
2023-04-18T02:42:51.878Z,15.25
2023-04-18T02:45:18.396Z,14.15
2023-04-18T02:47:54.584Z,16.90
2023-04-18T02:50:22.606Z,17.73
2023-04-18T02:52:49.169Z,19.83
2023-04-18T02:55:15.935Z,15.02
2023-04-18T02:57:42.379Z,16.10
2023-04-18T03:00:09.465Z,16.80
2023-04-18T03:02:36.220Z,15.82
2023-04-18T03:05:03.403Z,15.95
2023-04-18T03:07:30.974Z,20.48
2023-04-18T03:09:57.791Z,17.17
2023-04-18T03:12:24.741Z,15.65
2023-04-18T03:14:51.378Z,19.13
2023-04-18T03:17:18.479Z,17.67
2023-04-18T03:19:46.626Z,17.85
2023-04-18T03:22:14.216Z,18.42
2023-04-18T03:27:07.208Z,17.08
2023-04-18T03:29:33.754Z,16.00
2023-04-18T03:32:00.297Z,15.20
2023-04-18T03:34:27.073Z,15.55
2023-04-18T03:36:54.173Z,15.95
2023-04-18T03:39:21.036Z,15.27
2023-04-18T03:41:47.574Z,16.92
2023-04-18T03:44:14.473Z,16.50
2023-04-18T03:46:41.622Z,14.88
2023-04-18T03:49:08.525Z,16.25
2023-04-18T03:51:43.511Z,16.50
2023-04-18T03:54:10.078Z,17.40
2023-04-18T03:56:36.878Z,14.00
2023-04-18T03:59:03.493Z,15.65
2023-04-18T04:01:31.226Z,16.83
2023-04-18T04:03:57.747Z,17.13
2023-04-18T04:06:24.716Z,15.60
2023-04-18T04:08:51.270Z,15.65
2023-04-18T04:11:17.815Z,14.48
2023-04-18T04:13:44.430Z,14.82
2023-04-18T04:16:11.083Z,13.70
2023-04-18T04:18:37.850Z,15.30
2023-04-18T04:21:05.694Z,14.07
2023-04-18T04:23:33.214Z,16.55
2023-04-18T04:26:04.142Z,13.65
2023-04-18T04:28:31.581Z,16.75
2023-04-18T04:30:58.065Z,13.80
2023-04-18T04:33:25.745Z,14.90
2023-04-18T04:35:56.739Z,14.52
2023-04-18T04:38:23.230Z,16.98
2023-04-18T04:40:50.098Z,15.48
2023-04-18T04:43:20.364Z,14.88
2023-04-18T04:45:51.724Z,15.05
2023-04-18T04:48:24.997Z,13.73
2023-04-18T04:50:55.761Z,12.13
2023-04-18T04:53:24.265Z,17.90
2023-04-18T04:55:51.073Z,16.00
2023-04-18T04:58:20.396Z,13.48
2023-04-18T05:00:47.139Z,16.45
2023-04-18T05:03:13.859Z,17.55
2023-04-18T05:05:40.443Z,14.85
2023-04-18T05:08:06.927Z,13.55
2023-04-18T05:10:37.168Z,16.73
2023-04-18T05:13:05.409Z,15.25
2023-04-18T05:15:32.407Z,13.77
2023-04-18T05:17:58.944Z,15.25
2023-04-18T05:20:25.629Z,15.98
2023-04-18T05:23:07.168Z,14.83
2023-04-18T05:25:34.945Z,14.43
2023-04-18T05:28:01.558Z,14.85
2023-04-18T05:30:28.000Z,14.47
2023-04-18T05:32:54.928Z,14.63
2023-04-18T05:35:21.467Z,12.68
2023-04-18T05:37:50.005Z,12.27
2023-04-18T05:40:16.752Z,15.02
2023-04-18T05:42:43.163Z,11.07
2023-04-18T05:45:11.334Z,19.23
2023-04-18T05:47:37.805Z,14.40
2023-04-18T05:50:05.237Z,15.00
2023-04-18T05:52:32.581Z,11.95
2023-04-18T05:57:26.684Z,13.85
2023-04-18T05:59:54.248Z,13.27
2023-04-18T06:02:21.216Z,13.25
2023-04-18T06:04:49.007Z,13.90
2023-04-18T06:07:21.446Z,12.20
2023-04-18T06:09:49.975Z,12.52
2023-04-18T06:12:16.747Z,13.63
2023-04-18T06:14:43.197Z,14.38
2023-04-18T06:17:12.523Z,13.85
2023-04-18T06:19:40.000Z,16.52
2023-04-18T06:22:14.225Z,13.52
2023-04-18T06:24:44.931Z,11.32
2023-04-18T06:27:24.202Z,11.90
2023-04-18T06:29:56.895Z,10.60
2023-04-18T06:32:23.450Z,9.70
2023-04-18T06:34:51.184Z,12.20
2023-04-18T06:37:27.246Z,11.60
2023-04-18T06:39:55.940Z,10.20
2023-04-18T06:42:22.860Z,13.25
2023-04-18T06:44:49.736Z,10.60
2023-04-18T06:47:16.582Z,12.20
2023-04-18T06:49:43.042Z,10.70
2023-04-18T06:52:10.929Z,12.40
2023-04-18T06:54:37.792Z,10.55
2023-04-18T06:57:04.930Z,11.95
2023-04-18T06:59:31.833Z,12.05
2023-04-18T07:01:58.320Z,16.50
2023-04-18T07:04:24.925Z,10.50
2023-04-18T07:06:52.022Z,9.93
2023-04-18T07:09:18.548Z,10.48
2023-04-18T07:11:45.464Z,10.70
2023-04-18T07:14:14.484Z,8.70
2023-04-18T07:16:41.606Z,10.52
2023-04-18T07:19:08.380Z,12.63
2023-04-18T07:21:34.966Z,11.95
2023-04-18T07:24:01.392Z,10.97
2023-04-18T07:26:30.134Z,11.57
2023-04-18T07:29:04.930Z,11.60
2023-04-18T07:31:31.421Z,10.25
2023-04-18T07:33:58.365Z,11.10
2023-04-18T07:36:24.958Z,11.35
2023-04-18T07:38:51.836Z,10.47
2023-04-18T07:41:18.272Z,10.20
2023-04-18T07:43:44.894Z,9.23
2023-04-18T07:46:11.463Z,9.70
2023-04-18T07:48:37.964Z,12.50
2023-04-18T07:51:04.586Z,11.00
2023-04-18T07:53:31.090Z,10.37
2023-04-18T07:55:57.572Z,9.48
2023-04-18T07:58:24.009Z,10.60
2023-04-18T08:00:50.686Z,10.23
2023-04-18T08:03:17.269Z,10.15
2023-04-18T08:05:43.789Z,11.18
2023-04-18T08:08:11.979Z,9.52
2023-04-18T08:10:38.834Z,8.82
2023-04-18T08:13:06.812Z,10.43
2023-04-18T08:15:33.380Z,11.32
2023-04-18T08:18:01.110Z,11.40
2023-04-18T08:20:27.947Z,11.63
2023-04-18T08:23:06.215Z,11.23
2023-04-18T08:25:36.757Z,11.50
2023-04-18T08:28:05.133Z,9.15
2023-04-18T08:30:31.754Z,11.60
2023-04-18T08:33:00.100Z,10.20
2023-04-18T08:35:26.808Z,10.80
2023-04-18T08:38:02.794Z,12.03
2023-04-18T08:40:37.978Z,9.43
2023-04-18T08:43:09.229Z,10.55
2023-04-18T08:45:36.908Z,11.80
2023-04-18T08:48:03.921Z,13.10
2023-04-18T08:50:43.339Z,11.23
2023-04-18T08:53:11.015Z,12.68
2023-04-18T08:55:38.002Z,12.50
2023-04-18T08:58:06.852Z,10.82
2023-04-18T09:00:50.653Z,13.95
2023-04-18T09:03:17.200Z,11.05
2023-04-18T09:05:43.735Z,11.53
2023-04-18T09:08:25.947Z,11.20
2023-04-18T09:10:52.764Z,9.73
2023-04-18T09:13:46.263Z,12.35
2023-04-18T09:16:20.736Z,11.18
2023-04-18T09:19:13.734Z,10.40
2023-04-18T09:21:42.578Z,10.27
2023-04-18T09:24:28.424Z,10.13
2023-04-18T09:26:57.109Z,9.85
2023-04-18T09:29:43.400Z,10.95
2023-04-18T09:32:10.130Z,15.25
2023-04-18T09:34:42.505Z,12.73
2023-04-18T09:37:13.830Z,10.20
2023-04-18T09:39:42.541Z,10.75
2023-04-18T09:42:11.126Z,12.32
2023-04-18T09:44:39.553Z,12.27
2023-04-18T09:47:07.797Z,12.32
2023-04-18T09:49:34.662Z,11.40
2023-04-18T09:52:06.353Z,11.52
2023-04-18T09:54:33.467Z,10.80
2023-04-18T09:57:02.833Z,14.02
2023-04-18T10:00:14.351Z,12.07
2023-04-18T10:02:49.530Z,12.25
2023-04-18T10:05:19.497Z,12.23
2023-04-18T10:07:49.818Z,15.95
2023-04-18T10:10:17.668Z,10.80
2023-04-18T10:12:54.920Z,10.30
2023-04-18T10:15:23.673Z,11.45
2023-04-18T10:18:09.170Z,10.65
2023-04-18T10:20:36.266Z,12.30
2023-04-18T10:23:37.987Z,11.25
2023-04-18T10:26:09.010Z,11.43
2023-04-18T10:28:58.444Z,10.80
2023-04-18T10:31:29.225Z,18.85
2023-04-18T10:36:28.522Z,13.30
2023-04-18T10:39:00.823Z,11.25
2023-04-18T10:41:38.112Z,11.23
2023-04-18T10:44:08.685Z,13.07
2023-04-18T10:46:40.542Z,10.10
2023-04-18T10:49:16.585Z,11.52
2023-04-18T10:51:45.309Z,13.30
2023-04-18T10:54:17.817Z,12.75
2023-04-18T10:57:01.919Z,10.95
2023-04-18T10:59:33.734Z,12.57
2023-04-18T11:02:20.029Z,12.73
2023-04-18T11:04:56.914Z,13.00
2023-04-18T11:07:37.694Z,14.57
2023-04-18T11:10:08.129Z,15.13
2023-04-18T11:12:41.526Z,11.95
2023-04-18T11:15:21.924Z,12.63
2023-04-18T11:18:04.891Z,13.95
2023-04-18T11:20:39.628Z,14.07
2023-04-18T11:23:16.246Z,12.60
2023-04-18T11:25:44.922Z,12.90
2023-04-18T11:28:14.092Z,14.50
2023-04-18T11:30:41.454Z,13.23
2023-04-18T11:35:45.343Z,18.30
2023-04-18T11:38:16.209Z,14.13
2023-04-18T11:40:50.379Z,15.02
2023-04-18T11:43:25.137Z,14.10
2023-04-18T11:45:52.721Z,13.02
2023-04-18T11:48:19.302Z,20.80
2023-04-18T11:50:45.831Z,14.85
2023-04-18T11:53:12.285Z,17.73
2023-04-18T11:55:38.909Z,16.00
2023-04-18T11:58:06.776Z,18.42
2023-04-18T12:00:55.214Z,15.65
2023-04-18T12:03:24.453Z,14.30
2023-04-18T12:05:59.851Z,17.77
2023-04-18T12:08:27.465Z,17.13
2023-04-18T12:11:00.245Z,15.77
2023-04-18T12:13:32.997Z,16.83
2023-04-18T12:16:02.696Z,16.38
2023-04-18T12:18:29.999Z,15.90
2023-04-18T12:23:42.825Z,15.07
2023-04-18T12:26:14.560Z,16.10
2023-04-18T12:28:45.078Z,16.08
2023-04-18T12:31:11.616Z,15.05
2023-04-18T12:33:38.102Z,15.20
2023-04-18T12:36:11.296Z,14.68
2023-04-18T12:38:45.791Z,14.40
2023-04-18T12:41:13.435Z,14.35
2023-04-18T12:43:39.868Z,14.98
2023-04-18T12:46:06.361Z,13.20
2023-04-18T12:48:33.881Z,13.63
2023-04-18T12:51:00.414Z,17.77
2023-04-18T12:53:26.902Z,14.18
2023-04-18T12:55:53.418Z,14.30
2023-04-18T12:58:28.112Z,13.55
2023-04-18T13:00:55.865Z,14.98
2023-04-18T13:03:26.439Z,13.00
2023-04-18T13:05:53.521Z,14.98
2023-04-18T13:08:20.097Z,15.25
2023-04-18T13:10:47.949Z,15.05
2023-04-18T13:13:15.534Z,14.70
2023-04-18T13:15:44.773Z,10.55
2023-04-18T13:18:11.426Z,13.18
2023-04-18T13:20:38.179Z,11.20
2023-04-18T13:23:05.740Z,16.33
2023-04-18T13:25:32.282Z,12.27
2023-04-18T13:28:00.848Z,11.98
2023-04-18T13:30:28.989Z,12.05
2023-04-18T13:32:56.926Z,12.40
2023-04-18T13:35:23.414Z,11.70
2023-04-18T13:37:49.883Z,11.10
2023-04-18T13:40:16.850Z,13.07
2023-04-18T13:42:47.418Z,10.90
2023-04-18T13:45:13.870Z,17.02
2023-04-18T13:47:41.610Z,14.15
2023-04-18T13:50:09.049Z,12.23
2023-04-18T13:52:36.282Z,15.15
2023-04-18T13:55:04.038Z,14.85
2023-04-18T13:57:32.186Z,11.15
2023-04-18T13:59:59.290Z,11.23
2023-04-18T14:04:58.639Z,12.77
2023-04-18T14:07:25.449Z,11.32
2023-04-18T14:09:53.728Z,19.30
2023-04-18T14:12:20.516Z,10.30
2023-04-18T14:14:47.143Z,8.80
2023-04-18T14:19:41.465Z,10.38
2023-04-18T14:22:07.963Z,12.18
2023-04-18T14:24:37.642Z,9.95
2023-04-18T14:27:10.684Z,9.77
2023-04-18T14:29:37.117Z,8.80
2023-04-18T14:32:03.828Z,10.57
2023-04-18T14:34:38.197Z,10.77
2023-04-18T14:37:06.244Z,9.18
2023-04-18T14:39:38.077Z,12.18
2023-04-18T14:42:17.129Z,8.93
2023-04-18T14:44:43.623Z,8.75
2023-04-18T14:47:10.278Z,9.40
2023-04-18T14:52:03.161Z,9.30
2023-04-18T14:54:31.553Z,9.30
2023-04-18T14:56:59.200Z,9.77
2023-04-18T14:59:28.009Z,9.90
2023-04-18T15:01:54.608Z,7.82
2023-04-18T15:04:22.557Z,7.78
2023-04-18T15:06:49.192Z,11.05
2023-04-18T15:11:55.264Z,12.32
2023-04-18T15:14:25.755Z,10.57
2023-04-18T15:16:52.273Z,8.68
2023-04-18T15:19:18.926Z,11.95
2023-04-18T15:21:46.393Z,8.40
2023-04-18T15:24:13.179Z,10.40
2023-04-18T15:29:06.429Z,10.73
2023-04-18T15:31:40.234Z,9.50
2023-04-18T15:34:08.883Z,11.10
2023-04-18T15:36:36.035Z,8.68
2023-04-18T15:39:05.874Z,8.48
2023-04-18T15:41:37.626Z,10.52
2023-04-18T15:44:05.553Z,12.90
2023-04-18T15:46:34.818Z,7.60
2023-04-18T15:49:03.492Z,7.45
2023-04-18T15:51:30.869Z,7.80
2023-04-18T15:54:06.838Z,8.18
2023-04-18T15:56:33.875Z,10.00
2023-04-18T15:59:04.209Z,8.40
2023-04-18T16:01:33.070Z,8.65
2023-04-18T16:04:01.680Z,8.57
2023-04-18T16:06:31.178Z,10.50
2023-04-18T16:08:58.829Z,11.75
2023-04-18T16:11:28.919Z,11.52
2023-04-18T16:13:56.532Z,10.45
2023-04-18T16:16:23.241Z,9.65
2023-04-18T16:18:49.794Z,9.85
2023-04-18T16:21:16.368Z,7.53
2023-04-18T16:23:43.359Z,7.20
2023-04-18T16:28:37.752Z,8.38
2023-04-18T16:31:06.062Z,7.50
2023-04-18T16:33:32.740Z,8.20
2023-04-18T16:36:02.556Z,9.23
2023-04-18T16:38:40.176Z,8.35
2023-04-18T16:43:38.113Z,7.75
2023-04-18T16:46:06.029Z,7.72
2023-04-18T16:48:33.982Z,8.77
2023-04-18T16:51:00.581Z,7.20
2023-04-18T16:53:29.204Z,9.48
2023-04-18T16:55:56.974Z,6.88
2023-04-18T16:58:23.749Z,7.40
2023-04-18T17:00:55.399Z,8.43
2023-04-18T17:03:22.323Z,8.63
2023-04-18T17:08:16.581Z,9.43
2023-04-18T17:10:45.422Z,9.70
2023-04-18T17:13:21.059Z,8.80
2023-04-18T17:15:47.602Z,8.20
2023-04-18T17:18:14.033Z,7.45
2023-04-18T17:20:40.833Z,8.13
2023-04-18T17:25:33.952Z,7.78
2023-04-18T17:28:02.232Z,8.10
2023-04-18T17:30:29.439Z,9.27
2023-04-18T17:33:01.973Z,8.57
2023-04-18T17:35:31.682Z,8.05
2023-04-18T17:38:00.122Z,7.78
2023-04-18T17:40:26.818Z,9.30
2023-04-18T17:42:53.278Z,7.70
2023-04-18T17:45:22.710Z,11.13
2023-04-18T17:47:50.904Z,10.55
2023-04-18T17:50:17.681Z,8.95
2023-04-18T17:52:46.338Z,8.60
2023-04-18T17:55:13.064Z,10.93
2023-04-18T17:57:39.583Z,12.15
2023-04-18T18:00:10.739Z,8.98
2023-04-18T18:02:38.317Z,7.80
2023-04-18T18:05:05.533Z,7.82
2023-04-18T18:07:34.827Z,10.13
2023-04-18T18:10:03.313Z,8.70
2023-04-18T18:12:31.097Z,10.07
2023-04-18T18:14:58.043Z,12.23
2023-04-18T18:17:24.653Z,10.75
2023-04-18T18:19:51.561Z,9.98
2023-04-18T18:22:18.353Z,10.48
2023-04-18T18:24:46.839Z,9.60
2023-04-18T18:27:13.331Z,9.48
2023-04-18T18:29:40.935Z,8.98
2023-04-18T18:32:09.585Z,9.30
2023-04-18T18:34:38.155Z,8.82
2023-04-18T18:37:05.800Z,8.02
2023-04-18T18:39:32.483Z,10.88
2023-04-18T18:41:59.121Z,10.38
2023-04-18T18:44:33.848Z,10.13
2023-04-18T18:47:00.523Z,12.40
2023-04-18T18:49:27.380Z,11.68
2023-04-18T18:51:53.887Z,9.40
2023-04-18T18:54:20.462Z,9.97
2023-04-18T18:56:48.317Z,12.88
2023-04-18T18:59:16.116Z,10.23
2023-04-18T19:01:42.902Z,10.52
2023-04-18T19:04:09.722Z,15.05
2023-04-18T19:06:40.725Z,11.98
2023-04-18T19:09:08.162Z,11.27
2023-04-18T19:14:03.011Z,11.48
2023-04-18T19:16:37.814Z,12.40
2023-04-18T19:19:08.460Z,10.85
2023-04-18T19:21:39.832Z,12.77
2023-04-18T19:24:06.699Z,13.93
2023-04-18T19:26:33.282Z,13.25
2023-04-18T19:28:59.868Z,12.40
2023-04-18T19:31:26.492Z,11.50
2023-04-18T19:33:53.162Z,11.20
2023-04-18T19:36:19.712Z,12.38
2023-04-18T19:38:47.258Z,10.60
2023-04-18T19:41:14.089Z,10.15
2023-04-18T19:43:42.966Z,9.93
2023-04-18T19:46:09.905Z,11.45
2023-04-18T19:48:37.587Z,10.48
2023-04-18T19:51:04.844Z,10.40
2023-04-18T19:53:34.497Z,11.70
2023-04-18T19:56:01.149Z,11.50
2023-04-18T19:58:44.823Z,11.90
2023-04-18T20:01:21.307Z,10.75
2023-04-18T20:03:48.345Z,10.80
2023-04-18T20:06:16.826Z,11.18
2023-04-18T20:08:44.559Z,9.98
2023-04-18T20:11:12.423Z,10.52
2023-04-18T20:13:39.167Z,11.43
2023-04-18T20:16:07.511Z,10.85
2023-04-18T20:18:35.854Z,9.45
2023-04-18T20:21:03.380Z,14.23
2023-04-18T20:23:30.329Z,12.85
2023-04-18T20:25:57.983Z,12.13
2023-04-18T20:28:24.882Z,13.02
2023-04-18T20:30:51.478Z,11.40
2023-04-18T20:33:18.346Z,12.68
2023-04-18T20:35:46.691Z,11.88
2023-04-18T20:38:14.901Z,12.52
2023-04-18T20:40:44.993Z,12.27
2023-04-18T20:43:12.736Z,14.55
2023-04-18T20:45:42.866Z,9.38
2023-04-18T20:48:10.116Z,12.50
2023-04-18T20:50:36.568Z,11.70
2023-04-18T20:53:04.023Z,13.98
2023-04-18T20:57:58.685Z,13.95
2023-04-18T21:00:25.413Z,11.05
2023-04-18T21:02:52.072Z,11.10
2023-04-18T21:05:18.745Z,12.57
2023-04-18T21:07:45.862Z,11.37
2023-04-18T21:10:12.660Z,11.02
2023-04-18T21:12:39.137Z,10.32
2023-04-18T21:15:06.368Z,14.33
2023-04-18T21:17:33.002Z,12.00
2023-04-18T21:19:59.549Z,16.37
2023-04-18T21:22:27.176Z,12.07
2023-04-18T21:24:53.731Z,14.82
2023-04-18T21:27:20.432Z,14.67
2023-04-18T21:29:47.002Z,14.20
2023-04-18T21:32:13.560Z,12.63
2023-04-18T21:34:39.994Z,11.70
2023-04-18T21:37:06.499Z,12.75
2023-04-18T21:39:33.125Z,13.87
2023-04-18T21:41:59.680Z,13.73
2023-04-18T21:44:26.253Z,11.70
2023-04-18T21:46:52.801Z,12.07
2023-04-18T21:49:19.647Z,11.85
2023-04-18T21:51:49.026Z,12.98
2023-04-18T21:54:16.212Z,12.48
2023-04-18T21:56:45.582Z,11.98
2023-04-18T21:59:12.131Z,12.98
2023-04-18T22:01:39.147Z,13.30
2023-04-18T22:04:06.215Z,11.45
2023-04-18T22:06:33.464Z,13.02
2023-04-18T22:09:01.108Z,13.02
2023-04-18T22:11:28.652Z,13.35
2023-04-18T22:13:58.166Z,15.38
2023-04-18T22:16:24.902Z,12.80
2023-04-18T22:18:51.719Z,14.00
2023-04-18T22:21:18.269Z,11.13
2023-04-18T22:23:44.909Z,12.50
2023-04-18T22:26:11.539Z,14.18
2023-04-18T22:28:38.158Z,11.88
2023-04-18T22:31:05.178Z,11.52
2023-04-18T22:33:31.722Z,13.02
2023-04-18T22:35:58.498Z,12.13
2023-04-18T22:38:25.545Z,13.15
2023-04-18T22:40:52.206Z,22.35
2023-04-18T22:43:23.017Z,13.85
2023-04-18T22:45:51.531Z,13.25
2023-04-18T22:48:18.588Z,16.00
2023-04-18T22:50:46.317Z,14.20
2023-04-18T22:53:15.023Z,11.65
2023-04-18T22:55:45.233Z,13.57
2023-04-18T22:58:14.311Z,19.65
2023-04-18T23:00:40.970Z,16.20
2023-04-18T23:03:07.795Z,12.73
2023-04-18T23:05:34.679Z,11.35
2023-04-18T23:08:01.489Z,16.27
2023-04-18T23:10:28.271Z,15.85
2023-04-18T23:12:54.853Z,14.52
2023-04-18T23:15:22.886Z,14.20
2023-04-18T23:17:52.006Z,16.30
2023-04-18T23:20:19.139Z,12.02
2023-04-18T23:22:46.715Z,15.32
2023-04-18T23:25:13.442Z,13.55
2023-04-18T23:27:40.269Z,14.45
2023-04-18T23:30:07.603Z,13.07
2023-04-18T23:32:34.346Z,15.70
2023-04-18T23:35:04.322Z,18.05
2023-04-18T23:37:31.595Z,16.13
2023-04-18T23:39:59.733Z,13.40
2023-04-18T23:42:27.588Z,14.15
2023-04-18T23:44:54.643Z,13.10
2023-04-18T23:47:21.963Z,16.33
2023-04-18T23:49:48.804Z,13.88
2023-04-18T23:52:15.583Z,17.23
2023-04-18T23:54:42.315Z,13.85
2023-04-18T23:57:09.098Z,14.38
2023-04-18T23:59:35.663Z,13.35
